Time;durP1;ratioP1;P1;durP2;ratioP2;P2;SDS_P1;SDS_P2;PMS_P1;PMS_P2;Temp;Humidity;BMP_temperature;BMP_pressure;BME280_temperature;BME280_humidity;BME280_pressure;Samples;Min_cycle;Max_cycle;Signal;HPM_P1;HPM_P2
2024/04/10 00:00:12;;;;;;;3.60;0.70;;;10.10;94.90;;;;;;4188848;28;20044;-63
2024/04/10 00:02:14;;;;;;;1.80;0.55;;;10.10;94.90;;;;;;4185576;28;20053;-59
2024/04/10 00:04:15;;;;;;;1.88;1.23;;;10.10;95.30;;;;;;4182484;28;20071;-59
2024/04/10 00:06:16;;;;;;;0.70;0.35;;;10.10;95.40;;;;;;4192680;28;20478;-59
2024/04/10 00:08:17;;;;;;;0.50;0.38;;;10.00;95.10;;;;;;4181213;28;20045;-59
2024/04/10 00:10:21;;;;;;;0.32;0.17;;;10.00;95.30;;;;;;4186799;28;20047;-59
2024/04/10 00:12:22;;;;;;;0.50;0.50;;;10.00;95.60;;;;;;4187013;28;20128;-58
2024/04/10 00:14:23;;;;;;;3.03;0.80;;;10.10;95.30;;;;;;4181930;28;20056;-58
2024/04/10 00:16:24;;;;;;;1.45;0.43;;;10.10;95.80;;;;;;4197574;28;20509;-61
2024/04/10 00:18:25;;;;;;;1.13;0.52;;;10.10;95.10;;;;;;4197801;28;20045;-62
2024/04/10 00:20:26;;;;;;;1.48;0.75;;;10.00;95.20;;;;;;4193219;28;20040;-59
2024/04/10 00:22:27;;;;;;;0.88;0.30;;;10.00;95.20;;;;;;4193457;28;20056;-58
2024/04/10 00:24:29;;;;;;;3.42;0.32;;;10.00;95.50;;;;;;4197031;28;20074;-58
2024/04/10 00:26:31;;;;;;;2.17;0.55;;;10.00;95.30;;;;;;4193046;28;20041;-57
2024/04/10 00:28:32;;;;;;;1.52;1.35;;;10.00;95.30;;;;;;4181124;28;20041;-59
2024/04/10 00:30:35;;;;;;;1.02;0.32;;;9.90;95.30;;;;;;4183291;28;20408;-59
2024/04/10 00:32:37;;;;;;;7.13;2.75;;;9.90;95.30;;;;;;4190399;28;20469;-58
2024/04/10 00:34:38;;;;;;;2.25;0.38;;;9.90;95.30;;;;;;4180910;28;20075;-59
2024/04/10 00:36:39;;;;;;;7.97;1.98;;;9.80;95.50;;;;;;4190585;28;20044;-63
2024/04/10 00:38:40;;;;;;;4.80;1.02;;;9.90;95.50;;;;;;4182824;28;20168;-59
2024/04/10 00:40:41;;;;;;;2.95;0.63;;;9.80;95.90;;;;;;4182333;28;20045;-65
2024/04/10 00:42:44;;;;;;;0.98;0.88;;;9.90;95.50;;;;;;4180492;28;20136;-58
2024/04/10 00:44:52;;;;;;;0.90;0.30;;;9.90;95.70;;;;;;4180948;28;20180;-58
2024/04/10 00:46:53;;;;;;;1.65;0.40;;;9.90;95.80;;;;;;4189768;28;20490;-58
2024/04/10 00:48:55;;;;;;;4.20;0.77;;;9.90;96.40;;;;;;4167336;28;20123;-58
2024/04/10 00:50:58;;;;;;;1.52;0.50;;;9.90;95.60;;;;;;4165454;28;20526;-58
2024/04/10 00:52:59;;;;;;;1.40;0.93;;;9.90;95.60;;;;;;4191016;28;20045;-68
2024/04/10 00:55:00;;;;;;;1.05;0.55;;;9.80;95.80;;;;;;4180548;28;20052;-58
2024/04/10 00:57:02;;;;;;;1.67;0.65;;;9.80;95.70;;;;;;4187612;28;20036;-62
2024/04/10 00:59:04;;;;;;;1.65;0.90;;;9.80;96.00;;;;;;4202080;28;20068;-60
2024/04/10 01:01:07;;;;;;;0.70;0.30;;;9.90;96.30;;;;;;4181958;28;20045;-58
2024/04/10 01:03:09;;;;;;;0.60;0.40;;;9.90;96.80;;;;;;4191586;28;20056;-59
2024/04/10 01:05:10;;;;;;;1.70;0.50;;;9.80;96.20;;;;;;4180547;28;20055;-58
2024/04/10 01:07:11;;;;;;;0.82;0.40;;;9.80;95.90;;;;;;4185678;28;20041;-57
2024/04/10 01:09:13;;;;;;;0.68;0.30;;;9.80;96.30;;;;;;4186637;28;20498;-58
2024/04/10 01:11:14;;;;;;;1.02;0.50;;;9.80;96.00;;;;;;4180562;28;20049;-59
2024/04/10 01:13:18;;;;;;;2.88;0.45;;;9.80;96.20;;;;;;4191783;28;20048;-58
2024/04/10 01:15:21;;;;;;;1.90;0.45;;;9.80;96.10;;;;;;4180411;28;20045;-58
2024/04/10 01:17:22;;;;;;;2.10;0.80;;;9.70;96.40;;;;;;4184469;28;20062;-58
2024/04/10 01:19:23;;;;;;;2.03;0.60;;;9.80;96.50;;;;;;4187748;28;20048;-61
2024/04/10 01:21:24;;;;;;;2.03;0.32;;;9.90;96.50;;;;;;4179952;28;20055;-58
2024/04/10 01:23:27;;;;;;;1.50;0.63;;;9.90;96.40;;;;;;4194466;28;20052;-62
2024/04/10 01:25:28;;;;;;;0.40;0.20;;;9.80;96.80;;;;;;4180055;28;20044;-63
2024/04/10 01:27:30;;;;;;;1.00;0.40;;;9.70;96.40;;;;;;4182458;28;20041;-58
2024/04/10 01:29:31;;;;;;;6.85;1.58;;;9.70;96.30;;;;;;4172725;28;20056;-58
2024/04/10 01:31:32;;;;;;;4.07;0.55;;;9.80;96.60;;;;;;4179834;28;20098;-58
2024/04/10 01:33:33;;;;;;;2.00;1.38;;;9.60;96.60;;;;;;4189452;28;20372;-58
2024/04/10 01:35:34;;;;;;;4.07;0.82;;;9.70;96.70;;;;;;4181828;28;20045;-59
2024/04/10 01:37:36;;;;;;;4.82;2.05;;;9.70;96.70;;;;;;4164658;28;20073;-58
2024/04/10 01:39:39;;;;;;;2.05;0.95;;;9.70;96.60;;;;;;4191031;28;20485;-59
2024/04/10 01:41:40;;;;;;;0.60;0.38;;;9.70;96.60;;;;;;4180114;28;20044;-55
2024/04/10 01:43:41;;;;;;;1.83;1.23;;;9.80;96.80;;;;;;4196573;28;20072;-56
2024/04/10 01:45:43;;;;;;;5.35;1.42;;;9.70;96.60;;;;;;4183861;28;20232;-64
2024/04/10 01:47:44;;;;;;;1.65;0.82;;;9.70;96.80;;;;;;4181348;28;20106;-62
2024/04/10 01:49:45;;;;;;;1.92;0.70;;;9.70;96.50;;;;;;4191100;28;20037;-57
2024/04/10 01:51:46;;;;;;;1.63;0.50;;;9.70;96.80;;;;;;4179719;28;20462;-61
2024/04/10 01:53:47;;;;;;;1.38;0.40;;;9.60;96.50;;;;;;4186065;28;20048;-55
2024/04/10 01:55:52;;;;;;;5.63;1.45;;;9.60;96.80;;;;;;4196567;28;20131;-59
2024/04/10 01:57:53;;;;;;;0.57;0.30;;;9.60;97.10;;;;;;4195756;28;20149;-58
2024/04/10 01:59:54;;;;;;;1.77;0.45;;;9.60;96.90;;;;;;4190670;28;20076;-57
2024/04/10 02:01:55;;;;;;;1.05;0.50;;;9.60;97.10;;;;;;4179749;28;20502;-59
2024/04/10 02:03:56;;;;;;;3.13;0.30;;;9.60;97.20;;;;;;4183989;28;20044;-55
2024/04/10 02:05:58;;;;;;;1.40;0.80;;;9.50;96.70;;;;;;4186353;28;20057;-59
2024/04/10 02:07:59;;;;;;;0.70;0.30;;;9.50;97.10;;;;;;4179356;28;20045;-56
2024/04/10 02:10:00;;;;;;;0.77;0.63;;;9.50;97.20;;;;;;4191368;28;20048;-57
2024/04/10 02:12:03;;;;;;;2.20;0.68;;;9.50;96.90;;;;;;4179366;28;20487;-58
2024/04/10 02:14:04;;;;;;;1.80;0.50;;;9.50;96.80;;;;;;4182598;28;20083;-59
2024/04/10 02:16:06;;;;;;;0.52;0.20;;;9.50;97.20;;;;;;4188701;28;20056;-59
2024/04/10 02:18:07;;;;;;;4.80;0.63;;;9.40;97.00;;;;;;4179667;28;20119;-59
2024/04/10 02:20:09;;;;;;;0.63;0.32;;;9.30;97.30;;;;;;4173270;28;20483;-62
2024/04/10 02:22:11;;;;;;;0.63;0.20;;;9.40;97.10;;;;;;4183792;28;20118;-59
2024/04/10 02:24:12;;;;;;;3.22;0.50;;;9.40;97.30;;;;;;4191379;28;20045;-59
2024/04/10 02:26:14;;;;;;;1.50;0.60;;;9.40;97.40;;;;;;4190566;28;20442;-58
2024/04/10 02:28:16;;;;;;;8.50;1.48;;;9.40;97.40;;;;;;4162855;28;20483;-58
2024/04/10 02:30:17;;;;;;;2.20;1.05;;;9.40;97.50;;;;;;4188082;28;20106;-62
2024/04/10 02:32:18;;;;;;;1.02;0.65;;;9.40;97.40;;;;;;4182615;28;20045;-57
2024/04/10 02:34:20;;;;;;;1.83;1.10;;;9.40;97.20;;;;;;4179882;28;20040;-56
2024/04/10 02:36:21;;;;;;;2.40;0.80;;;9.40;97.60;;;;;;4190628;28;20045;-57
2024/04/10 02:38:23;;;;;;;0.43;0.35;;;9.40;97.40;;;;;;4179357;28;20072;-57
2024/04/10 02:40:29;;;;;;;1.65;0.50;;;9.30;97.60;;;;;;4203050;28;20127;-62
2024/04/10 02:42:30;;;;;;;1.17;0.30;;;9.30;97.60;;;;;;4195830;28;20480;-57
2024/04/10 02:44:32;;;;;;;2.65;1.05;;;9.40;97.50;;;;;;4180192;28;20049;-56
2024/04/10 02:46:34;;;;;;;2.03;1.13;;;9.40;97.40;;;;;;4192562;28;20108;-58
2024/04/10 02:48:35;;;;;;;7.85;1.83;;;9.30;97.50;;;;;;4182438;28;20288;-58
2024/04/10 02:50:36;;;;;;;4.10;0.95;;;9.30;97.50;;;;;;4188575;28;20048;-60
2024/04/10 02:52:37;;;;;;;2.38;0.50;;;9.30;97.80;;;;;;4189183;28;20067;-59
2024/04/10 02:54:38;;;;;;;1.02;0.35;;;9.30;97.80;;;;;;4182706;28;20049;-60
2024/04/10 02:56:40;;;;;;;0.88;0.43;;;9.30;97.60;;;;;;4187727;28;20040;-59
2024/04/10 02:58:41;;;;;;;3.47;0.47;;;9.40;97.60;;;;;;4198880;28;20098;-59
2024/04/10 03:00:45;;;;;;;1.42;0.40;;;9.40;97.60;;;;;;4195086;28;20044;-59
2024/04/10 03:02:46;;;;;;;3.75;0.60;;;9.40;97.50;;;;;;4190014;28;20051;-58
2024/04/10 03:04:47;;;;;;;1.27;0.20;;;9.40;97.50;;;;;;4182385;28;20106;-58
2024/04/10 03:06:48;;;;;;;0.70;0.30;;;9.40;97.40;;;;;;4186885;28;20045;-61
2024/04/10 03:08:50;;;;;;;2.53;0.30;;;9.50;98.00;;;;;;4197911;28;20090;-62
2024/04/10 03:10:52;;;;;;;1.65;0.43;;;9.40;97.90;;;;;;4195968;28;20051;-58
2024/04/10 03:12:53;;;;;;;2.80;0.80;;;9.40;97.70;;;;;;4188802;28;20052;-60
2024/04/10 03:14:54;;;;;;;1.63;0.47;;;9.30;97.80;;;;;;4198786;28;20510;-59
2024/04/10 03:16:56;;;;;;;0.65;0.38;;;9.30;98.10;;;;;;4188927;28;20057;-59
2024/04/10 03:18:58;;;;;;;2.85;0.45;;;9.20;97.60;;;;;;4195847;28;20056;-58
2024/04/10 03:20:59;;;;;;;0.65;0.40;;;9.20;97.60;;;;;;4197184;28;20045;-58
2024/04/10 03:23:00;;;;;;;2.40;0.40;;;9.30;98.00;;;;;;4191700;28;20056;-59
2024/04/10 03:25:01;;;;;;;1.90;0.95;;;9.40;97.90;;;;;;4198704;28;20049;-59
2024/04/10 03:27:02;;;;;;;1.27;0.77;;;9.30;97.70;;;;;;4173986;28;20042;-59
2024/04/10 03:29:04;;;;;;;1.58;0.60;;;9.20;98.00;;;;;;4193672;28;20063;-59
2024/04/10 03:31:06;;;;;;;0.88;0.38;;;9.30;98.10;;;;;;4196815;28;20462;-59
2024/04/10 03:33:08;;;;;;;1.45;0.55;;;9.40;98.10;;;;;;4186795;28;20086;-58
2024/04/10 03:35:10;;;;;;;2.17;1.38;;;9.40;98.50;;;;;;4198412;28;20044;-59
2024/04/10 03:37:11;;;;;;;1.42;0.57;;;9.30;98.00;;;;;;4192287;28;20475;-58
2024/04/10 03:39:12;;;;;;;0.75;0.30;;;9.30;97.80;;;;;;4191980;28;20041;-58
2024/04/10 03:41:13;;;;;;;3.00;1.45;;;9.30;98.20;;;;;;4197775;28;20062;-58
2024/04/10 03:43:14;;;;;;;1.55;0.47;;;9.30;98.00;;;;;;4185895;28;20053;-58
2024/04/10 03:45:15;;;;;;;3.08;0.50;;;9.30;97.90;;;;;;4198265;28;20048;-59
2024/04/10 03:47:17;;;;;;;1.23;0.82;;;9.30;98.30;;;;;;4193374;28;20510;-59
2024/04/10 03:49:20;;;;;;;3.00;0.68;;;9.30;98.20;;;;;;4189622;28;20049;-59
2024/04/10 03:51:21;;;;;;;0.43;0.30;;;9.30;98.10;;;;;;4198153;28;20049;-58
2024/04/10 03:53:22;;;;;;;1.13;0.57;;;9.30;98.30;;;;;;4193051;28;20052;-58
2024/04/10 03:55:23;;;;;;;0.60;0.30;;;9.30;98.00;;;;;;4198169;28;20502;-58
2024/04/10 03:57:24;;;;;;;0.32;0.22;;;9.40;98.60;;;;;;4195188;28;20041;-58
2024/04/10 03:59:26;;;;;;;1.75;0.35;;;9.50;98.40;;;;;;4188007;28;20041;-60
2024/04/10 04:01:27;;;;;;;1.27;0.47;;;9.40;98.40;;;;;;4198035;28;20051;-59
2024/04/10 04:03:28;;;;;;;0.47;0.40;;;9.40;98.30;;;;;;4187986;28;20110;-58
2024/04/10 04:05:31;;;;;;;2.85;1.35;;;9.40;98.30;;;;;;4195230;28;20429;-58
2024/04/10 04:07:32;;;;;;;1.17;0.40;;;9.40;98.20;;;;;;4194436;28;20052;-58
2024/04/10 04:09:33;;;;;;;2.20;1.02;;;9.30;98.20;;;;;;4192358;28;20126;-59
2024/04/10 04:11:34;;;;;;;0.40;0.30;;;9.30;98.20;;;;;;4164672;28;20053;-59
2024/04/10 04:13:37;;;;;;;1.88;1.25;;;9.30;98.40;;;;;;4188625;28;20129;-58
2024/04/10 04:15:40;;;;;;;5.20;0.43;;;9.30;98.30;;;;;;4185230;28;20049;-59
2024/04/10 04:17:41;;;;;;;1.55;0.40;;;9.30;98.70;;;;;;4182512;28;20041;-58
2024/04/10 04:19:42;;;;;;;1.67;0.30;;;9.20;98.40;;;;;;4192441;28;20041;-61
2024/04/10 04:21:45;;;;;;;2.08;1.25;;;9.20;98.40;;;;;;4181499;28;20131;-60
2024/04/10 04:23:46;;;;;;;2.35;1.08;;;9.30;98.70;;;;;;4192787;28;20044;-64
2024/04/10 04:25:48;;;;;;;1.30;1.00;;;9.30;98.60;;;;;;4181146;28;20106;-58
2024/04/10 04:27:49;;;;;;;1.92;0.45;;;9.30;98.80;;;;;;4181591;28;20396;-58
2024/04/10 04:29:51;;;;;;;6.13;1.38;;;9.30;98.20;;;;;;4191927;28;20138;-57
2024/04/10 04:31:52;;;;;;;0.73;0.32;;;9.30;98.50;;;;;;4181564;28;20568;-67
2024/04/10 04:33:57;;;;;;;0.85;0.50;;;9.40;98.30;;;;;;4185314;28;20040;-61
2024/04/10 04:35:58;;;;;;;0.73;0.35;;;9.30;98.10;;;;;;4188776;28;20056;-59
2024/04/10 04:38:00;;;;;;;0.75;0.40;;;9.30;98.50;;;;;;4181075;28;20049;-59
2024/04/10 04:40:06;;;;;;;2.47;0.32;;;9.20;98.70;;;;;;4193698;28;20118;-61
2024/04/10 04:42:07;;;;;;;1.00;0.43;;;9.30;98.50;;;;;;4197458;28;20170;-59
2024/04/10 04:44:08;;;;;;;0.93;0.25;;;9.30;98.50;;;;;;4193130;28;20046;-58
2024/04/10 04:46:11;;;;;;;1.10;0.65;;;9.30;98.60;;;;;;4172437;28;20041;-59
2024/04/10 04:48:12;;;;;;;0.75;0.50;;;9.20;98.50;;;;;;4197971;28;20049;-58
2024/04/10 04:50:15;;;;;;;1.35;0.85;;;9.20;98.30;;;;;;4196153;28;20409;-58
2024/04/10 04:52:16;;;;;;;1.08;0.50;;;9.30;98.40;;;;;;4182403;28;20050;-59
2024/04/10 04:54:19;;;;;;;4.22;1.17;;;9.30;99.10;;;;;;4183081;28;20044;-60
2024/04/10 04:56:20;;;;;;;2.53;0.43;;;9.40;99.00;;;;;;4197832;28;20421;-59
2024/04/10 04:58:21;;;;;;;1.17;0.43;;;9.50;98.40;;;;;;4197695;28;20060;-58
2024/04/10 05:00:22;;;;;;;2.13;1.20;;;9.40;98.30;;;;;;4192347;28;20041;-59
2024/04/10 05:02:24;;;;;;;0.95;0.40;;;9.30;98.40;;;;;;4180684;28;20126;-59
2024/04/10 05:06:45;;;;;;;1.85;0.70;;;9.30;98.40;;;;;;4180926;28;20049;-63
2024/04/10 05:08:47;;;;;;;2.67;1.67;;;9.30;98.60;;;;;;4179476;28;20055;-59
2024/04/10 05:10:50;;;;;;;2.72;1.55;;;9.30;98.30;;;;;;4185080;28;20049;-58
2024/04/10 05:12:52;;;;;;;3.25;0.40;;;9.30;98.30;;;;;;4194838;28;20056;-59
2024/04/10 05:14:53;;;;;;;0.88;0.50;;;9.30;98.70;;;;;;4194735;28;20048;-60
2024/04/10 05:16:54;;;;;;;2.15;1.23;;;9.30;98.50;;;;;;4180096;28;20052;-57
2024/04/10 05:18:56;;;;;;;2.15;0.25;;;9.30;98.60;;;;;;4180389;28;20052;-59
2024/04/10 05:20:57;;;;;;;4.18;1.15;;;9.30;98.50;;;;;;4188794;28;20048;-59
2024/04/10 05:22:58;;;;;;;3.50;0.70;;;9.40;98.80;;;;;;4193028;28;20060;-59
2024/04/10 05:24:59;;;;;;;2.03;1.17;;;9.40;98.60;;;;;;4194315;28;20067;-58
2024/04/10 05:27:04;;;;;;;2.50;0.32;;;9.40;98.30;;;;;;4190978;28;20047;-58
2024/04/10 05:29:05;;;;;;;1.67;0.63;;;9.40;98.10;;;;;;4179599;28;20045;-58
2024/04/10 05:31:10;;;;;;;1.35;0.57;;;9.30;98.20;;;;;;4186742;28;20044;-58
2024/04/10 05:33:11;;;;;;;2.20;1.13;;;9.30;98.60;;;;;;4184581;28;20045;-58
2024/04/10 05:35:13;;;;;;;0.90;0.50;;;9.30;99.10;;;;;;4181120;28;20051;-58
2024/04/10 05:37:14;;;;;;;2.45;0.88;;;9.40;98.70;;;;;;4190833;28;20052;-59
2024/04/10 05:39:18;;;;;;;1.42;0.60;;;9.40;98.60;;;;;;4179945;28;20041;-59
2024/04/10 05:41:20;;;;;;;3.35;0.90;;;9.40;98.60;;;;;;4186026;28;20056;-60
2024/04/10 05:43:22;;;;;;;1.05;0.40;;;9.40;98.90;;;;;;4185906;28;20067;-59
2024/04/10 05:45:23;;;;;;;1.88;0.50;;;9.40;98.60;;;;;;4180124;28;20056;-62
2024/04/10 05:47:25;;;;;;;1.05;0.40;;;9.40;98.60;;;;;;4191059;28;20055;-59
2024/04/10 05:49:26;;;;;;;2.58;0.80;;;9.50;99.00;;;;;;4179727;28;20045;-58
2024/04/10 05:51:27;;;;;;;1.67;0.82;;;9.60;98.50;;;;;;4183840;28;20474;-59
2024/04/10 05:53:31;;;;;;;3.80;0.60;;;9.60;98.70;;;;;;4187508;28;20051;-58
2024/04/10 05:55:34;;;;;;;1.90;0.50;;;9.50;98.10;;;;;;4179871;28;20076;-62
2024/04/10 05:57:35;;;;;;;1.90;0.30;;;9.50;98.10;;;;;;4191573;28;20051;-59
2024/04/10 05:59:37;;;;;;;4.60;0.75;;;9.40;98.30;;;;;;4180088;28;20041;-58
2024/04/10 06:01:40;;;;;;;0.63;0.60;;;9.60;98.50;;;;;;4183024;28;20431;-59
2024/04/10 06:03:44;;;;;;;1.23;0.90;;;9.60;98.10;;;;;;4188866;28;20059;-58
2024/04/10 06:05:45;;;;;;;0.93;0.47;;;9.60;98.40;;;;;;4179740;28;20542;-58
2024/04/10 06:07:46;;;;;;;1.63;0.98;;;9.70;98.30;;;;;;4190501;28;20048;-59
2024/04/10 06:09:51;;;;;;;5.40;1.20;;;9.70;97.90;;;;;;4181106;28;20389;-61
2024/04/10 06:11:53;;;;;;;4.20;1.30;;;9.70;98.30;;;;;;4181236;28;20041;-59
2024/04/10 06:13:57;;;;;;;3.72;0.75;;;9.70;98.20;;;;;;4189846;28;20079;-59
2024/04/10 06:16:00;;;;;;;0.73;0.50;;;9.70;98.10;;;;;;4179765;28;20052;-59
2024/04/10 06:18:01;;;;;;;1.13;0.40;;;9.90;98.00;;;;;;4183358;28;20434;-59
2024/04/10 06:20:05;;;;;;;2.05;0.47;;;10.00;98.60;;;;;;4193871;28;20052;-59
2024/04/10 06:22:06;;;;;;;0.40;0.40;;;10.00;98.00;;;;;;4194315;28;20422;-58
2024/04/10 06:24:07;;;;;;;4.47;0.75;;;9.90;97.60;;;;;;4190734;28;20487;-59
2024/04/10 06:26:09;;;;;;;2.00;0.88;;;9.90;97.90;;;;;;4162554;28;20053;-58
2024/04/10 06:28:10;;;;;;;6.13;2.63;;;9.90;97.90;;;;;;4187769;28;20516;-59
2024/04/10 06:30:12;;;;;;;0.90;0.50;;;9.90;97.70;;;;;;4182949;28;20056;-60
2024/04/10 06:32:15;;;;;;;2.95;2.10;;;10.00;97.80;;;;;;4163818;28;20071;-59
2024/04/10 06:34:16;;;;;;;1.38;0.30;;;10.10;97.80;;;;;;4190500;28;20044;-61
2024/04/10 06:36:17;;;;;;;1.15;0.40;;;10.10;98.10;;;;;;4179087;28;20098;-58
2024/04/10 06:38:19;;;;;;;3.40;0.47;;;10.20;98.50;;;;;;4185816;28;20051;-58
2024/04/10 06:40:20;;;;;;;3.15;1.90;;;10.00;97.40;;;;;;4184542;28;20045;-59
2024/04/10 06:42:21;;;;;;;2.60;0.80;;;10.10;97.50;;;;;;4180017;28;20171;-58
2024/04/10 06:44:25;;;;;;;1.90;0.60;;;10.10;97.80;;;;;;4190585;28;20053;-59
2024/04/10 06:46:26;;;;;;;2.78;0.88;;;10.00;97.50;;;;;;4179200;28;20091;-59
2024/04/10 06:48:29;;;;;;;0.98;0.50;;;10.10;97.90;;;;;;4184134;28;20048;-58
2024/04/10 06:50:31;;;;;;;1.42;0.75;;;10.20;97.60;;;;;;4186120;28;20481;-58
2024/04/10 06:52:32;;;;;;;2.53;1.75;;;10.20;97.60;;;;;;4179000;28;20056;-58
2024/04/10 06:54:33;;;;;;;3.65;1.15;;;10.30;97.40;;;;;;4191165;28;20045;-58
2024/04/10 06:56:35;;;;;;;4.18;1.73;;;10.30;97.50;;;;;;4179130;28;20049;-58
2024/04/10 06:58:36;;;;;;;0.98;0.38;;;10.40;97.70;;;;;;4180485;28;20049;-58
2024/04/10 07:00:38;;;;;;;1.23;1.00;;;10.40;97.80;;;;;;4188615;28;20040;-58
2024/04/10 07:02:39;;;;;;;3.40;1.20;;;10.70;98.50;;;;;;4195298;28;20052;-59
2024/04/10 07:04:45;;;;;;;2.70;0.40;;;10.70;97.20;;;;;;4184195;28;20102;-59
2024/04/10 07:06:46;;;;;;;2.05;0.73;;;10.70;97.30;;;;;;4194782;28;20509;-58
2024/04/10 07:08:48;;;;;;;1.70;0.45;;;10.60;97.20;;;;;;4195283;28;20052;-58
2024/04/10 07:10:53;;;;;;;13.18;0.57;;;10.50;97.30;;;;;;4184907;28;20113;-60
2024/04/10 07:12:54;;;;;;;2.90;0.47;;;10.60;97.40;;;;;;4195685;28;20049;-57
2024/04/10 07:14:56;;;;;;;0.45;0.43;;;10.60;97.60;;;;;;4184943;28;20049;-60
2024/04/10 07:16:57;;;;;;;2.35;0.73;;;10.60;97.20;;;;;;4193284;28;20460;-61
2024/04/10 07:18:59;;;;;;;3.53;0.35;;;10.60;97.60;;;;;;4193982;28;20060;-59
2024/04/10 07:21:03;;;;;;;4.95;2.28;;;10.60;97.40;;;;;;4167861;28;20045;-60
2024/04/10 07:23:06;;;;;;;0.50;0.30;;;10.60;97.20;;;;;;4195369;28;20468;-62
2024/04/10 07:25:08;;;;;;;1.55;1.13;;;10.70;97.40;;;;;;4190871;28;20048;-57
2024/04/10 07:27:10;;;;;;;3.00;1.05;;;10.70;97.10;;;;;;4182142;28;20076;-57
2024/04/10 07:29:12;;;;;;;1.92;0.88;;;10.80;97.40;;;;;;4196699;28;20126;-57
2024/04/10 07:31:15;;;;;;;1.70;0.75;;;10.90;97.10;;;;;;4189991;28;20037;-57
2024/04/10 07:33:16;;;;;;;0.57;0.40;;;11.20;97.30;;;;;;4165603;28;20052;-57
2024/04/10 07:35:17;;;;;;;4.43;0.88;;;11.40;96.80;;;;;;4189445;28;20478;-60
2024/04/10 07:37:20;;;;;;;1.33;0.40;;;11.80;96.00;;;;;;4186489;28;20049;-57
2024/04/10 07:39:21;;;;;;;2.75;0.40;;;12.30;95.90;;;;;;4182873;28;20052;-57
2024/04/10 07:41:24;;;;;;;0.43;0.40;;;12.40;95.10;;;;;;4192581;28;20091;-58
2024/04/10 07:43:25;;;;;;;2.90;0.75;;;12.60;94.70;;;;;;4181402;28;20048;-58
2024/04/10 07:45:27;;;;;;;3.08;0.38;;;13.00;94.80;;;;;;4187409;28;20051;-56
2024/04/10 07:47:28;;;;;;;0.35;0.35;;;13.30;94.10;;;;;;4188018;28;20040;-59
2024/04/10 07:49:30;;;;;;;2.55;1.05;;;13.40;94.00;;;;;;4181812;28;20491;-61
2024/04/10 07:51:32;;;;;;;1.42;0.50;;;13.30;93.50;;;;;;4193182;28;20056;-59
2024/04/10 07:53:35;;;;;;;1.65;0.93;;;13.30;93.80;;;;;;4181350;28;20094;-59
2024/04/10 07:55:36;;;;;;;6.88;1.35;;;13.40;93.90;;;;;;4185986;28;20048;-59
2024/04/10 07:57:38;;;;;;;2.08;0.73;;;13.50;93.40;;;;;;4189237;28;20041;-63
2024/04/10 07:59:40;;;;;;;4.75;2.53;;;13.70;93.50;;;;;;4181146;28;20052;-60
2024/04/10 08:01:41;;;;;;;9.23;1.60;;;13.90;93.50;;;;;;4193217;28;20055;-56
2024/04/10 08:03:42;;;;;;;0.90;0.30;;;14.00;92.70;;;;;;4181498;28;20044;-61
2024/04/10 08:05:49;;;;;;;1.42;0.82;;;14.20;93.10;;;;;;4186699;28;20052;-56
2024/04/10 08:07:50;;;;;;;1.08;0.50;;;14.50;92.60;;;;;;4190614;28;20060;-56
2024/04/10 08:09:53;;;;;;;0.60;0.40;;;14.90;92.50;;;;;;4191810;28;20045;-56
2024/04/10 08:11:54;;;;;;;4.13;0.75;;;15.10;91.80;;;;;;4192841;28;20522;-58
2024/04/10 08:13:55;;;;;;;2.63;0.70;;;15.30;91.90;;;;;;4193204;28;20060;-59
2024/04/10 08:16:01;;;;;;;1.20;0.35;;;15.50;91.50;;;;;;4192091;28;20044;-61
2024/04/10 08:18:02;;;;;;;2.60;0.55;;;15.60;91.30;;;;;;4197451;28;20478;-59
2024/04/10 08:20:04;;;;;;;2.28;0.85;;;15.60;91.40;;;;;;4197553;28;20498;-59
2024/04/10 08:22:07;;;;;;;2.35;0.60;;;15.60;91.30;;;;;;4189140;28;20055;-61
2024/04/10 08:24:08;;;;;;;0.60;0.50;;;15.70;91.00;;;;;;4197010;28;20469;-58
2024/04/10 08:26:12;;;;;;;2.40;0.60;;;16.10;91.30;;;;;;4193917;28;20483;-65
2024/04/10 08:28:17;;;;;;;1.50;0.50;;;16.40;90.30;;;;;;4195598;28;20040;-61
2024/04/10 08:30:18;;;;;;;2.58;0.70;;;16.50;90.00;;;;;;4196891;28;20048;-63
2024/04/10 08:32:19;;;;;;;1.85;0.50;;;16.30;90.00;;;;;;4187460;28;20040;-59
2024/04/10 08:34:21;;;;;;;1.70;0.55;;;16.20;90.60;;;;;;4188269;28;20395;-58
2024/04/10 08:36:23;;;;;;;2.90;0.63;;;16.40;90.70;;;;;;4185663;28;20520;-59
2024/04/10 08:38:24;;;;;;;2.75;0.60;;;16.20;90.20;;;;;;4183531;28;20049;-63
2024/04/10 08:40:26;;;;;;;0.82;0.47;;;16.10;90.40;;;;;;4179817;28;20795;-59
2024/04/10 08:42:29;;;;;;;5.80;1.27;;;16.10;90.30;;;;;;4182591;28;20063;-55
2024/04/10 08:44:31;;;;;;;5.82;0.85;;;15.90;90.80;;;;;;4186833;28;20041;-56
2024/04/10 08:46:37;;;;;;;0.90;0.55;;;15.80;90.80;;;;;;4186366;28;20045;-61
2024/04/10 08:48:40;;;;;;;1.65;0.50;;;15.80;90.40;;;;;;4191522;28;20143;-57
2024/04/10 08:50:41;;;;;;;0.85;0.50;;;15.90;90.50;;;;;;4187710;28;20045;-58
2024/04/10 08:52:44;;;;;;;12.43;1.02;;;15.80;90.70;;;;;;4190158;28;20415;-56
2024/04/10 08:54:47;;;;;;;0.70;0.30;;;15.70;90.80;;;;;;4185093;28;20053;-60
2024/04/10 08:56:49;;;;;;;2.28;0.75;;;15.80;90.70;;;;;;4195696;28;20436;-61
2024/04/10 08:58:53;;;;;;;1.65;0.70;;;15.70;90.80;;;;;;4185257;28;20414;-59
2024/04/10 09:00:54;;;;;;;2.03;0.93;;;15.70;90.70;;;;;;4195680;28;20508;-59
2024/04/10 09:02:57;;;;;;;2.38;0.65;;;15.60;90.60;;;;;;4190605;28;20207;-64
2024/04/10 09:04:58;;;;;;;1.00;0.45;;;15.80;90.50;;;;;;4188895;28;20152;-59
2024/04/10 09:07:00;;;;;;;1.50;0.50;;;15.70;90.20;;;;;;4195280;28;20474;-56
2024/04/10 09:09:09;;;;;;;1.83;0.57;;;15.80;89.10;;;;;;4189965;28;20044;-58
2024/04/10 09:11:10;;;;;;;1.95;1.10;;;15.90;89.90;;;;;;4189162;28;20390;-55
2024/04/10 09:13:13;;;;;;;0.98;0.38;;;15.90;89.80;;;;;;4190190;28;20421;-57
2024/04/10 09:15:19;;;;;;;2.20;0.90;;;16.10;90.30;;;;;;4193496;28;20052;-59
2024/04/10 09:17:20;;;;;;;2.10;1.13;;;16.20;89.00;;;;;;4194853;28;20049;-58
2024/04/10 09:19:21;;;;;;;2.22;0.32;;;16.10;89.50;;;;;;4192493;28;20488;-61
2024/04/10 09:21:23;;;;;;;2.42;1.90;;;16.00;85.90;;;;;;4187626;28;20102;-60
2024/04/10 09:23:24;;;;;;;2.90;1.55;;;16.10;89.00;;;;;;4174990;28;20063;-61
2024/04/10 09:25:25;;;;;;;1.70;0.65;;;16.10;88.60;;;;;;4176056;28;20037;-62
2024/04/10 09:27:27;;;;;;;1.65;0.30;;;16.20;88.30;;;;;;4177126;28;20051;-57
2024/04/10 09:29:31;;;;;;;0.40;0.30;;;16.10;88.40;;;;;;4172150;28;20072;-56
2024/04/10 09:31:33;;;;;;;1.20;0.40;;;16.20;88.90;;;;;;4177790;28;20056;-57
2024/04/10 09:33:35;;;;;;;2.65;0.40;;;16.30;86.40;;;;;;4176120;28;20049;-56
2024/04/10 09:35:37;;;;;;;0.50;0.30;;;16.20;86.30;;;;;;4173562;28;20050;-56
2024/04/10 09:37:38;;;;;;;4.38;0.57;;;16.10;86.50;;;;;;4178432;28;20053;-59
2024/04/10 09:39:39;;;;;;;5.78;0.28;;;16.10;85.80;;;;;;4178196;28;20451;-64
2024/04/10 09:41:46;;;;;;;0.75;0.40;;;16.10;82.20;;;;;;4176686;28;20053;-59
2024/04/10 09:43:50;;;;;;;0.80;0.20;;;15.90;81.60;;;;;;4166865;28;20079;-61
2024/04/10 09:45:56;;;;;;;;;;;15.90;83.80;;;;;;4168820;28;20534;-60
2024/04/10 09:48:03;;;;;;;;;;;15.90;85.50;;;;;;4179078;28;19924;-59
2024/04/10 09:50:09;;;;;;;0.20;0.20;;;15.90;86.60;;;;;;4167989;28;19925;-56
2024/04/10 09:52:12;;;;;;;0.30;0.30;;;16.00;86.10;;;;;;4176812;28;20044;-59
2024/04/10 09:54:16;;;;;;;0.25;0.20;;;16.10;86.50;;;;;;4159502;28;20037;-59
2024/04/10 09:56:18;;;;;;;0.30;0.22;;;16.10;84.30;;;;;;4163034;28;20124;-58
2024/04/10 09:58:20;;;;;;;2.00;0.20;;;16.00;85.20;;;;;;4175675;28;20041;-64
2024/04/10 10:00:21;;;;;;;1.42;0.35;;;16.20;84.30;;;;;;4170056;28;20064;-58
2024/04/10 10:02:22;;;;;;;2.05;1.02;;;16.30;85.00;;;;;;4176309;28;20412;-60
2024/04/10 10:04:35;;;;;;;1.92;0.20;;;16.40;83.50;;;;;;4176408;28;20044;-58
2024/04/10 10:06:36;;;;;;;0.40;0.32;;;16.50;83.80;;;;;;4162796;28;20050;-60
2024/04/10 10:08:50;;;;;;;0.98;0.43;;;16.50;81.90;;;;;;4175943;28;20045;-59
2024/04/10 10:10:54;;;;;;;1.10;0.20;;;16.50;82.90;;;;;;4168108;28;20138;-59
2024/04/10 10:13:05;;;;;;;0.32;0.28;;;16.30;81.80;;;;;;4178393;28;20095;-62
2024/04/10 10:15:07;;;;;;;5.65;0.82;;;16.20;80.40;;;;;;4172090;28;20049;-56
2024/04/10 10:17:09;;;;;;;0.68;0.68;;;16.10;80.00;;;;;;4167765;28;20053;-57
2024/04/10 10:19:19;;;;;;;1.67;0.60;;;15.90;80.60;;;;;;4178819;28;20051;-61
2024/04/10 10:21:23;;;;;;;0.68;0.35;;;15.80;78.40;;;;;;4178619;28;20045;-58
2024/04/10 10:23:24;;;;;;;0.73;0.20;;;15.90;79.10;;;;;;4192108;28;20052;-57
2024/04/10 10:25:26;;;;;;;0.75;0.30;;;15.80;79.50;;;;;;4191135;28;20045;-60
2024/04/10 10:27:27;;;;;;;0.55;0.40;;;15.90;79.00;;;;;;4191581;28;20106;-57
2024/04/10 10:29:31;;;;;;;3.00;0.10;;;16.00;80.90;;;;;;4187596;28;20037;-58
2024/04/10 10:31:32;;;;;;;0.73;0.10;;;16.10;81.50;;;;;;4190133;28;20040;-61
2024/04/10 10:33:33;;;;;;;5.32;0.35;;;16.20;80.10;;;;;;4180421;28;20045;-58
2024/04/10 10:35:35;;;;;;;1.30;0.40;;;16.40;80.50;;;;;;4163924;28;20050;-58
2024/04/10 10:37:37;;;;;;;0.28;0.28;;;16.50;81.60;;;;;;4187251;28;20049;-56
2024/04/10 10:39:41;;;;;;;0.47;0.35;;;16.60;78.20;;;;;;4190596;28;20037;-56
2024/04/10 10:41:42;;;;;;;0.45;0.10;;;16.70;78.90;;;;;;4189705;28;20043;-63